Time;durP1;ratioP1;P1;durP2;ratioP2;P2;SDS_P1;SDS_P2;PMS_P1;PMS_P2;Temp;Humidity;BMP_temperature;BMP_pressure;BME280_temperature;BME280_humidity;BME280_pressure;Samples;Min_cycle;Max_cycle;Signal;HPM_P1;HPM_P2
2020/12/31 00:02:13;;;;;;;22.48;15.05;;;;;;;-2.66;100.00;100960.46;1766140;80;21610;-65
2020/12/31 00:04:42;;;;;;;22.48;14.80;;;;;;;-2.67;100.00;100957.09;1758666;80;20999;-65
2020/12/31 00:07:10;;;;;;;21.48;13.50;;;;;;;-2.67;100.00;100965.20;1756883;80;21275;-64
2020/12/31 00:09:38;;;;;;;22.15;13.70;;;;;;;-2.67;100.00;100970.30;1757318;80;21038;-57
2020/12/31 00:12:08;;;;;;;18.00;11.00;;;;;;;-2.68;100.00;100966.12;1786163;79;21061;-58
2020/12/31 00:14:36;;;;;;;20.10;11.57;;;;;;;-2.68;100.00;100956.73;1782783;80;21224;-64
2020/12/31 00:17:04;;;;;;;19.52;11.25;;;;;;;-2.68;100.00;100950.34;1786764;79;21035;-57
2020/12/31 00:19:33;;;;;;;18.37;11.38;;;;;;;-2.67;100.00;100943.05;1793735;79;21313;-57
2020/12/31 00:22:01;;;;;;;17.12;11.00;;;;;;;-2.68;100.00;100940.59;1755491;80;21152;-57
2020/12/31 00:24:30;;;;;;;16.52;10.85;;;;;;;-2.68;100.00;100949.53;1784298;79;21088;-63
2020/12/31 00:26:58;;;;;;;16.93;10.65;;;;;;;-2.67;100.00;100946.06;1787657;79;20943;-65
2020/12/31 00:29:26;;;;;;;16.90;11.18;;;;;;;-2.66;100.00;100940.87;1789333;79;21133;-65
2020/12/31 00:31:54;;;;;;;15.35;10.48;;;;;;;-2.64;100.00;100943.36;1785133;79;21294;-65
2020/12/31 00:34:23;;;;;;;17.95;11.15;;;;;;;-2.62;100.00;100944.90;1800104;79;21113;-56
2020/12/31 00:36:51;;;;;;;17.00;10.65;;;;;;;-2.61;100.00;100939.38;1787819;79;21023;-57
2020/12/31 00:39:19;;;;;;;22.70;12.35;;;;;;;-2.59;100.00;100945.20;1785071;79;21093;-57
2020/12/31 00:41:47;;;;;;;17.45;11.53;;;;;;;-2.56;100.00;100942.03;1795459;79;21019;-56
2020/12/31 00:44:16;;;;;;;18.12;11.78;;;;;;;-2.53;100.00;100934.67;1784830;79;21976;-56
2020/12/31 00:46:44;;;;;;;18.02;10.88;;;;;;;-2.50;100.00;100939.59;1782573;79;21015;-57
2020/12/31 00:49:12;;;;;;;16.70;10.82;;;;;;;-2.47;100.00;100938.97;1783661;79;21042;-65
2020/12/31 00:51:41;;;;;;;18.42;10.58;;;;;;;-2.43;100.00;100939.63;1783963;79;21024;-56
2020/12/31 00:54:10;;;;;;;13.10;9.13;;;;;;;-2.39;100.00;100940.30;1785480;79;21513;-63
2020/12/31 00:56:38;;;;;;;15.10;9.43;;;;;;;-2.36;100.00;100939.67;1785008;79;21222;-56
2020/12/31 00:59:07;;;;;;;14.35;9.40;;;;;;;-2.32;100.00;100936.05;1790981;79;20960;-64
2020/12/31 01:01:36;;;;;;;14.10;9.45;;;;;;;-2.28;100.00;100945.19;1767003;80;21066;-64
2020/12/31 01:04:04;;;;;;;16.65;10.13;;;;;;;-2.26;100.00;100938.28;1756793;80;21149;-64
2020/12/31 01:06:37;;;;;;;16.55;9.98;;;;;;;-2.22;100.00;100942.31;1761969;80;21033;-57
2020/12/31 01:09:08;;;;;;;14.35;9.45;;;;;;;-2.18;100.00;100940.87;1788285;79;21203;-56
2020/12/31 01:11:37;;;;;;;14.63;9.03;;;;;;;-2.17;100.00;100934.39;1785950;79;21122;-64
2020/12/31 01:14:06;;;;;;;15.03;9.95;;;;;;;-2.15;100.00;100949.19;1789519;79;21094;-63
2020/12/31 01:16:35;;;;;;;16.25;9.50;;;;;;;-2.14;100.00;100936.78;1787433;79;21019;-65
2020/12/31 01:19:03;;;;;;;17.15;9.15;;;;;;;-2.13;100.00;100923.09;1788739;79;21146;-64
2020/12/31 01:21:31;;;;;;;16.52;10.10;;;;;;;-2.09;100.00;100937.80;1783198;80;21232;-65
2020/12/31 01:23:59;;;;;;;15.70;9.93;;;;;;;-2.08;100.00;100930.52;1783475;79;21133;-64
2020/12/31 01:26:33;;;;;;;16.00;10.05;;;;;;;-2.09;100.00;100925.02;1793687;79;21054;-56
2020/12/31 01:29:02;;;;;;;16.93;9.80;;;;;;;-2.10;100.00;100920.38;1783590;79;21141;-56
2020/12/31 01:31:31;;;;;;;14.50;9.78;;;;;;;-2.08;100.00;100924.14;1783452;80;21676;-55
2020/12/31 01:33:59;;;;;;;16.20;9.58;;;;;;;-2.07;100.00;100922.77;1783951;79;21355;-56
2020/12/31 01:36:28;;;;;;;14.90;9.98;;;;;;;-2.06;100.00;100912.09;1784950;79;21238;-64
2020/12/31 01:38:56;;;;;;;13.75;9.80;;;;;;;-2.05;100.00;100920.11;1783153;79;21181;-63
2020/12/31 01:41:24;;;;;;;14.87;9.25;;;;;;;-2.06;100.00;100917.20;1781839;79;21176;-56
2020/12/31 01:44:08;;;;;;;15.28;10.30;;;;;;;-2.05;100.00;100913.72;1785543;79;21070;-64
2020/12/31 01:46:38;;;;;;;15.88;9.25;;;;;;;-2.05;100.00;100903.50;1786788;79;21279;-65
2020/12/31 01:49:08;;;;;;;16.02;10.38;;;;;;;-2.05;100.00;100906.06;1783015;79;21638;-64
2020/12/31 01:51:36;;;;;;;14.43;8.53;;;;;;;-2.06;100.00;100903.96;1784453;79;21178;-57
2020/12/31 01:54:05;;;;;;;14.55;9.28;;;;;;;-2.07;100.00;100904.88;1794001;79;20911;-63
2020/12/31 01:56:34;;;;;;;17.67;10.30;;;;;;;-2.06;100.00;100912.91;1746488;80;21181;-64
2020/12/31 01:59:03;;;;;;;17.10;9.90;;;;;;;-2.04;100.00;100911.56;1766623;79;21212;-63
2020/12/31 02:01:31;;;;;;;16.60;9.90;;;;;;;-2.04;100.00;100904.72;1766753;79;21580;-57
2020/12/31 02:04:00;;;;;;;12.85;9.13;;;;;;;-2.02;100.00;100900.78;1766665;79;21161;-64
2020/12/31 02:06:29;;;;;;;17.10;10.15;;;;;;;-2.04;100.00;100907.27;1773251;79;21128;-64
2020/12/31 02:08:57;;;;;;;14.90;9.50;;;;;;;-2.02;100.00;100907.17;1769349;79;21114;-57
2020/12/31 02:11:26;;;;;;;17.02;10.48;;;;;;;-2.01;100.00;100904.55;1767437;79;21226;-57
2020/12/31 02:13:55;;;;;;;17.10;10.48;;;;;;;-1.99;100.00;100901.89;1769802;79;21099;-64
2020/12/31 02:16:26;;;;;;;15.28;10.25;;;;;;;-1.96;100.00;100906.84;1765378;80;21161;-57
2020/12/31 02:19:10;;;;;;;14.25;9.30;;;;;;;-1.94;100.00;100906.73;1760717;80;21198;-62
2020/12/31 02:21:47;;;;;;;15.75;9.33;;;;;;;-1.93;100.00;100902.84;1759344;80;21123;-56
2020/12/31 02:24:15;;;;;;;14.45;8.78;;;;;;;-1.96;100.00;100898.72;1762534;80;21333;-61
2020/12/31 02:26:44;;;;;;;15.58;9.30;;;;;;;-1.99;100.00;100899.34;1751392;80;21143;-55
2020/12/31 02:29:13;;;;;;;15.15;9.48;;;;;;;-2.03;100.00;100897.87;1757065;80;21105;-55
2020/12/31 02:31:42;;;;;;;12.45;7.83;;;;;;;-2.03;100.00;100902.98;1758596;80;21002;-56
2020/12/31 02:34:11;;;;;;;14.40;8.73;;;;;;;-2.01;100.00;100898.16;1750301;80;21130;-56
2020/12/31 02:36:39;;;;;;;13.55;8.25;;;;;;;-1.99;100.00;100887.84;1757112;80;21208;-61
2020/12/31 02:39:11;;;;;;;15.10;9.30;;;;;;;-1.98;100.00;100894.59;1754262;80;21129;-63
2020/12/31 02:41:39;;;;;;;14.78;8.93;;;;;;;-2.00;100.00;100887.03;1771035;80;20978;-55
2020/12/31 02:44:07;;;;;;;18.10;10.53;;;;;;;-1.99;100.00;100881.45;1753573;80;20987;-64
2020/12/31 02:46:36;;;;;;;15.72;9.65;;;;;;;-1.99;100.00;100883.55;1783965;79;21093;-63
2020/12/31 02:49:05;;;;;;;17.65;11.10;;;;;;;-1.99;100.00;100885.29;1767638;80;21204;-64
2020/12/31 02:51:33;;;;;;;17.82;11.00;;;;;;;-2.00;100.00;100873.44;1763851;80;21049;-64
2020/12/31 02:54:02;;;;;;;21.20;12.25;;;;;;;-1.99;100.00;100873.80;1763818;80;21106;-57
2020/12/31 02:56:30;;;;;;;18.87;11.05;;;;;;;-1.99;100.00;100872.52;1770199;80;21058;-56
2020/12/31 02:58:59;;;;;;;21.55;11.22;;;;;;;-1.99;100.00;100877.16;1764948;80;21156;-63
2020/12/31 03:01:27;;;;;;;18.27;11.75;;;;;;;-1.98;100.00;100873.70;1754824;80;21170;-63
2020/12/31 03:03:55;;;;;;;22.73;12.70;;;;;;;-1.98;100.00;100866.48;1756074;80;21221;-56
2020/12/31 03:06:24;;;;;;;21.62;11.60;;;;;;;-1.97;100.00;100868.97;1753109;80;21122;-56
2020/12/31 03:08:52;;;;;;;19.00;11.50;;;;;;;-1.96;100.00;100862.12;1753980;80;21229;-63
2020/12/31 03:11:23;;;;;;;21.97;13.28;;;;;;;-1.97;100.00;100863.87;1753885;80;21069;-63
2020/12/31 03:13:52;;;;;;;;;;;;;;;-2.00;100.00;100869.60;1758325;80;22092;-63
2020/12/31 03:16:20;;;;;;;20.55;12.00;;;;;;;-2.04;100.00;100870.23;1754280;80;20272;-64
2020/12/31 03:18:48;;;;;;;21.90;13.88;;;;;;;-2.05;100.00;100867.28;1753518;80;21102;-61
2020/12/31 03:21:16;;;;;;;19.20;12.25;;;;;;;-2.05;100.00;100866.47;1755316;80;21142;-56
2020/12/31 03:23:45;;;;;;;19.55;11.88;;;;;;;-2.06;100.00;100872.49;1754458;80;21145;-62
2020/12/31 03:26:13;;;;;;;18.50;11.48;;;;;;;-2.07;100.00;100866.56;1759969;80;21276;-55
2020/12/31 03:28:41;;;;;;;23.00;12.47;;;;;;;-2.06;100.00;100869.94;1784460;79;21157;-56
2020/12/31 03:31:09;;;;;;;20.27;12.15;;;;;;;-2.04;100.00;100870.69;1758217;80;21165;-63
2020/12/31 03:33:37;;;;;;;19.75;12.28;;;;;;;-2.06;100.00;100873.77;1758016;80;21004;-64
2020/12/31 03:36:06;;;;;;;20.97;11.50;;;;;;;-2.06;100.00;100873.77;1787470;79;21228;-56
2020/12/31 03:38:35;;;;;;;21.50;13.18;;;;;;;-2.06;100.00;100875.05;1785809;79;21320;-62
2020/12/31 03:41:03;;;;;;;18.07;11.25;;;;;;;-2.06;100.00;100873.77;1785762;79;21047;-62
2020/12/31 03:43:31;;;;;;;19.12;11.00;;;;;;;-2.05;100.00;100876.23;1783753;79;21122;-63
2020/12/31 03:45:59;;;;;;;17.57;10.90;;;;;;;-2.04;100.00;100871.97;1793748;79;21315;-56
2020/12/31 03:48:27;;;;;;;17.45;10.88;;;;;;;-2.03;100.00;100870.59;1798910;79;21093;-55
2020/12/31 03:50:56;;;;;;;16.65;10.65;;;;;;;-2.04;100.00;100869.41;1766659;80;21215;-62
2020/12/31 03:53:24;;;;;;;19.52;10.53;;;;;;;-2.05;100.00;100868.56;1760591;80;21070;-63
2020/12/31 03:55:52;;;;;;;19.23;12.00;;;;;;;-2.05;100.00;100880.05;1762380;80;21036;-63
2020/12/31 03:58:20;;;;;;;20.43;11.63;;;;;;;-2.04;100.00;100875.80;1754988;80;21174;-57
2020/12/31 04:00:49;;;;;;;17.73;10.38;;;;;;;-2.03;100.00;100868.49;1787669;79;21134;-63
2020/12/31 04:03:17;;;;;;;18.52;11.73;;;;;;;-2.02;100.00;100864.56;1785709;79;21302;-56
2020/12/31 04:05:46;;;;;;;17.62;9.63;;;;;;;-2.01;100.00;100864.10;1783000;80;21019;-56
2020/12/31 04:08:14;;;;;;;18.87;10.20;;;;;;;-2.02;100.00;100867.58;1786526;79;21159;-55
2020/12/31 04:10:42;;;;;;;16.30;9.85;;;;;;;-2.05;100.00;100871.58;1790782;79;21077;-56
2020/12/31 04:13:11;;;;;;;18.45;10.38;;;;;;;-2.08;100.00;100869.22;1794083;79;21664;-63
2020/12/31 04:15:39;;;;;;;15.80;9.25;;;;;;;-2.09;100.00;100866.27;1783214;80;21395;-56
2020/12/31 04:18:07;;;;;;;18.35;11.30;;;;;;;-2.10;100.00;100865.45;1786530;79;21177;-62
2020/12/31 04:20:35;;;;;;;17.42;9.90;;;;;;;-2.11;100.00;100862.55;1783457;79;21182;-62
2020/12/31 04:23:04;;;;;;;17.60;10.60;;;;;;;-2.10;100.00;100871.84;1787724;79;21129;-62
2020/12/31 04:25:32;;;;;;;15.55;9.63;;;;;;;-2.10;100.00;100864.18;1784174;79;21164;-56
2020/12/31 04:28:00;;;;;;;18.32;9.78;;;;;;;-2.10;100.00;100862.08;1757663;80;21204;-63
2020/12/31 04:30:30;;;;;;;18.30;10.72;;;;;;;-2.12;100.00;100863.45;1759785;80;21153;-63
2020/12/31 04:32:58;;;;;;;18.32;10.80;;;;;;;-2.12;100.00;100866.02;1783805;79;21133;-55
2020/12/31 04:35:26;;;;;;;20.35;10.82;;;;;;;-2.12;100.00;100870.27;1783583;79;21051;-63
2020/12/31 04:37:55;;;;;;;16.12;10.15;;;;;;;-2.12;100.00;100872.83;1789377;79;21174;-62
2020/12/31 04:40:23;;;;;;;17.67;10.85;;;;;;;-2.13;100.00;100873.28;1758038;80;21203;-61
2020/12/31 04:42:51;;;;;;;19.75;10.85;;;;;;;-2.13;100.00;100868.17;1754834;80;21183;-64
2020/12/31 04:45:20;;;;;;;19.42;11.35;;;;;;;-2.13;100.00;100867.36;1758176;80;21157;-63
2020/12/31 04:48:25;;;;;;;19.75;11.40;;;;;;;-2.13;100.00;100861.80;1793624;79;20966;-61
2020/12/31 04:50:58;;;;;;;19.25;12.18;;;;;;;-2.12;100.00;100867.72;1790562;79;21171;-62
2020/12/31 04:53:26;;;;;;;19.10;11.45;;;;;;;-2.12;100.00;100874.95;1791045;79;21444;-57
2020/12/31 04:55:55;;;;;;;20.10;12.35;;;;;;;-2.11;100.00;100878.33;1786176;79;21050;-57
2020/12/31 04:58:23;;;;;;;17.02;10.65;;;;;;;-2.09;100.00;100873.94;1790560;78;21004;-63
2020/12/31 05:00:51;;;;;;;19.07;12.23;;;;;;;-2.07;100.00;100881.07;1786356;79;20991;-57
2020/12/31 05:03:19;;;;;;;18.00;11.08;;;;;;;-2.08;100.00;100881.99;1785476;79;21238;-57
2020/12/31 05:05:48;;;;;;;21.77;12.95;;;;;;;-2.07;100.00;100874.69;1782378;79;21143;-57
2020/12/31 05:08:17;;;;;;;25.05;13.08;;;;;;;-2.06;100.00;100877.60;1788271;79;21255;-57
2020/12/31 05:10:54;;;;;;;21.68;12.88;;;;;;;-2.05;100.00;100889.00;1785899;79;21537;-57
2020/12/31 05:13:23;;;;;;;21.07;12.23;;;;;;;-2.04;100.00;100881.73;1784522;79;20959;-57
2020/12/31 05:15:51;;;;;;;18.37;10.78;;;;;;;-2.01;100.00;100885.81;1782479;80;21190;-57
2020/12/31 05:18:27;;;;;;;19.85;11.60;;;;;;;-1.99;100.00;100887.84;1788851;79;21254;-58
2020/12/31 05:20:56;;;;;;;19.10;11.12;;;;;;;-1.97;100.00;100886.86;1783107;79;21059;-63
2020/12/31 05:23:27;;;;;;;16.85;10.20;;;;;;;-1.94;100.00;100888.39;1784600;79;21114;-64
2020/12/31 05:25:57;;;;;;;18.57;11.33;;;;;;;-1.92;100.00;100895.53;1782044;80;21007;-59
2020/12/31 05:28:33;;;;;;;17.85;10.82;;;;;;;-1.91;100.00;100893.34;1790424;79;20995;-58
2020/12/31 05:31:04;;;;;;;16.35;9.68;;;;;;;-1.89;100.00;100894.55;1759176;80;21353;-63
2020/12/31 05:33:34;;;;;;;15.93;10.10;;;;;;;-1.88;100.00;100890.61;1757670;80;21145;-63
2020/12/31 05:36:20;;;;;;;15.40;10.38;;;;;;;-1.86;100.00;100890.05;1759068;80;21336;-64
2020/12/31 05:39:02;;;;;;;19.30;11.78;;;;;;;-1.85;100.00;100885.33;1756796;80;20943;-64
2020/12/31 05:41:35;;;;;;;15.28;10.43;;;;;;;-1.82;100.00;100886.44;1751247;80;21203;-57
2020/12/31 05:44:07;;;;;;;15.38;10.38;;;;;;;-1.80;100.00;100891.45;1756819;80;21217;-62
2020/12/31 05:46:37;;;;;;;16.52;10.95;;;;;;;-1.79;100.00;100897.74;1788759;79;22421;-63
2020/12/31 05:49:09;;;;;;;16.12;10.28;;;;;;;-1.77;100.00;100902.32;1785491;79;20964;-57
2020/12/31 05:51:40;;;;;;;17.45;11.53;;;;;;;-1.75;100.00;100904.78;1786624;79;21177;-59
2020/12/31 05:54:15;;;;;;;16.37;10.68;;;;;;;-1.72;100.00;100903.33;1788079;79;21528;-57
2020/12/31 05:56:44;;;;;;;13.55;8.40;;;;;;;-1.71;100.00;100903.23;1786738;79;21208;-58
2020/12/31 05:59:29;;;;;;;16.87;10.53;;;;;;;-1.68;100.00;100899.69;1784692;79;21210;-64
2020/12/31 06:02:01;;;;;;;17.42;11.05;;;;;;;-1.65;100.00;100901.25;1786753;79;21111;-56
2020/12/31 06:04:46;;;;;;;18.07;11.30;;;;;;;-1.61;100.00;100900.16;1783639;79;21081;-63
2020/12/31 06:07:27;;;;;;;17.77;11.38;;;;;;;-1.59;100.00;100897.05;1787270;79;21109;-62
2020/12/31 06:10:05;;;;;;;18.07;11.22;;;;;;;-1.55;100.00;100893.42;1787707;79;21197;-62
2020/12/31 06:12:50;;;;;;;17.60;10.25;;;;;;;-1.53;100.00;100889.03;1806192;79;21101;-58
2020/12/31 06:15:23;;;;;;;18.42;11.12;;;;;;;-1.52;100.00;100890.20;1783462;79;21110;-64
2020/12/31 06:17:51;;;;;;;15.43;9.95;;;;;;;-1.50;100.00;100893.97;1785654;79;21051;-58
2020/12/31 06:20:22;;;;;;;18.35;11.43;;;;;;;-1.49;100.00;100890.48;1757653;80;21099;-64
2020/12/31 06:23:08;;;;;;;17.80;10.55;;;;;;;-1.48;100.00;100889.57;1755095;80;27035;-67
2020/12/31 06:25:48;;;;;;;17.05;10.55;;;;;;;-1.47;100.00;100889.50;1761123;80;21156;-63
2020/12/31 06:28:22;;;;;;;15.83;10.82;;;;;;;-1.44;100.00;100885.92;1784314;80;21178;-59
2020/12/31 06:30:51;;;;;;;15.32;9.45;;;;;;;-1.43;100.00;100885.03;1753110;80;20951;-64
2020/12/31 06:33:33;;;;;;;13.20;9.00;;;;;;;-1.41;100.00;100889.58;1755063;80;21255;-57
2020/12/31 06:36:04;;;;;;;15.53;10.48;;;;;;;-1.38;100.00;100887.31;1755565;80;21210;-60
2020/12/31 06:38:40;;;;;;;16.20;10.48;;;;;;;-1.34;100.00;100891.33;1758352;80;21186;-61
2020/12/31 06:41:34;;;;;;;16.48;11.28;;;;;;;-1.32;100.00;100886.50;1759188;80;21576;-57
2020/12/31 06:44:18;;;;;;;18.42;11.80;;;;;;;-1.28;100.00;100892.25;1782584;80;20994;-61
2020/12/31 06:46:49;;;;;;;20.30;12.50;;;;;;;-1.25;100.00;100889.48;1761932;80;21091;-56
2020/12/31 06:49:17;;;;;;;15.93;11.10;;;;;;;-1.22;100.00;100895.24;1785017;79;21212;-56
2020/12/31 06:51:45;;;;;;;16.00;10.55;;;;;;;-1.20;100.00;100896.45;1785073;79;21121;-61
2020/12/31 06:54:29;;;;;;;18.20;12.20;;;;;;;-1.17;100.00;100896.73;1782441;79;21116;-55
2020/12/31 06:56:58;;;;;;;18.73;11.83;;;;;;;-1.15;100.00;100888.49;1783690;79;21126;-57
2020/12/31 06:59:34;;;;;;;18.17;12.03;;;;;;;-1.14;100.00;100902.46;1784963;79;21093;-60
2020/12/31 07:02:09;;;;;;;15.45;10.45;;;;;;;-1.14;100.00;100897.34;1765458;80;21390;-65
2020/12/31 07:07:26;;;;;;;16.63;10.47;;;;;;;-1.06;100.00;100905.84;1866765;74;23381;-63
2020/12/31 07:09:56;;;;;;;17.00;11.28;;;;;;;-1.10;100.00;100902.67;1801287;79;20992;-64
2020/12/31 07:12:39;;;;;;;16.27;10.63;;;;;;;-1.08;100.00;100910.23;1785634;79;21381;-64
2020/12/31 07:15:08;;;;;;;18.35;11.38;;;;;;;-1.08;100.00;100906.41;1756808;80;20945;-63
2020/12/31 07:17:44;;;;;;;16.30;10.38;;;;;;;-1.08;100.00;100903.84;1779808;80;20994;-59
2020/12/31 07:20:18;;;;;;;15.63;10.53;;;;;;;-1.07;100.00;100899.09;1780117;79;21045;-58
2020/12/31 07:22:48;;;;;;;15.50;9.80;;;;;;;-1.07;100.00;100906.77;1788373;79;21002;-64
2020/12/31 07:25:17;;;;;;;16.27;10.08;;;;;;;-1.05;100.00;100912.63;1775711;80;21215;-60
2020/12/31 07:27:47;;;;;;;16.00;10.88;;;;;;;-1.07;100.00;100908.04;1759742;80;20937;-60
2020/12/31 07:30:19;;;;;;;17.95;11.80;;;;;;;-1.07;100.00;100908.04;1770041;80;20922;-60
2020/12/31 07:33:08;;;;;;;18.10;11.73;;;;;;;-1.08;100.00;100911.06;1760659;80;21034;-61
2020/12/31 07:35:51;;;;;;;18.12;11.95;;;;;;;-1.08;100.00;100912.80;1772335;80;21412;-59
2020/12/31 07:38:20;;;;;;;16.55;11.53;;;;;;;-1.07;100.00;100917.81;1767505;80;21816;-58
2020/12/31 07:40:54;;;;;;;18.80;13.05;;;;;;;-1.05;100.00;100911.34;1766723;80;20941;-57
2020/12/31 07:43:28;;;;;;;21.97;13.80;;;;;;;-1.04;100.00;100919.38;1759663;80;21088;-58
2020/12/31 07:45:58;;;;;;;22.22;14.47;;;;;;;-1.00;100.00;100920.38;1771261;80;21058;-59
2020/12/31 07:48:27;;;;;;;27.45;17.92;;;;;;;-0.96;100.00;100922.75;1760641;80;20946;-59
2020/12/31 07:50:59;;;;;;;22.73;16.23;;;;;;;-0.91;100.00;100924.14;1769914;80;21207;-57
2020/12/31 07:53:35;;;;;;;20.83;14.87;;;;;;;-0.81;100.00;100916.24;1864674;75;21967;-57
2020/12/31 07:56:04;;;;;;;19.00;11.65;;;;;;;-0.82;100.00;100915.88;1839885;76;21002;-57
2020/12/31 07:58:32;;;;;;;16.17;10.53;;;;;;;-0.79;100.00;100910.58;1848925;77;21361;-61
2020/12/31 08:01:06;;;;;;;20.95;13.93;;;;;;;-0.77;100.00;100906.64;1852258;77;21052;-57
2020/12/31 08:03:34;;;;;;;19.00;12.05;;;;;;;-0.75;100.00;100901.80;1843252;77;20938;-57
2020/12/31 08:06:04;;;;;;;19.75;13.08;;;;;;;-0.67;100.00;100904.34;1833503;77;20950;-60
2020/12/31 08:08:34;;;;;;;14.73;9.00;;;;;;;-0.65;100.00;100899.94;1844236;76;20947;-57
2020/12/31 08:11:08;;;;;;;14.15;8.50;;;;;;;-0.66;100.00;100894.00;1836837;77;21436;-59
2020/12/31 08:13:37;;;;;;;13.22;9.30;;;;;;;-0.63;100.00;100894.28;1835699;76;21358;-57
2020/12/31 08:16:07;;;;;;;14.35;9.28;;;;;;;-0.61;100.00;100907.79;1846531;77;20973;-56
2020/12/31 08:18:36;;;;;;;11.35;7.50;;;;;;;-0.59;100.00;100908.53;1785393;80;20993;-57
2020/12/31 08:21:05;;;;;;;13.95;9.13;;;;;;;-0.56;100.00;100895.55;1759804;78;21002;-56
2020/12/31 08:23:38;;;;;;;16.48;10.13;;;;;;;-0.54;100.00;100888.57;1794750;78;21202;-56
2020/12/31 08:26:09;;;;;;;15.13;10.30;;;;;;;-0.55;100.00;100885.19;1766443;80;21199;-55
2020/12/31 08:28:38;;;;;;;14.93;9.70;;;;;;;-0.54;100.00;100883.45;1795785;78;21049;-56
2020/12/31 08:31:15;;;;;;;15.05;10.55;;;;;;;-0.55;100.00;100880.07;1804798;79;21177;-62
2020/12/31 08:33:43;;;;;;;17.05;10.10;;;;;;;-0.53;100.00;100874.84;1802336;78;20942;-58
2020/12/31 08:36:23;;;;;;;15.43;9.15;;;;;;;-0.51;100.00;100871.73;1806849;78;21302;-59
2020/12/31 08:38:51;;;;;;;14.47;9.45;;;;;;;-0.49;100.00;100867.36;1802925;78;21179;-57
2020/12/31 08:41:19;;;;;;;14.45;9.00;;;;;;;-0.48;100.00;100860.03;1784355;80;20978;-61
2020/12/31 08:43:48;;;;;;;17.50;11.68;;;;;;;-0.51;100.00;100856.38;1784662;79;21049;-57
2020/12/31 08:46:19;;;;;;;16.15;10.53;;;;;;;-0.54;100.00;100851.44;1815493;78;20958;-57
2020/12/31 08:48:55;;;;;;;14.20;8.93;;;;;;;-0.52;100.00;100860.68;1785877;79;21195;-61
2020/12/31 08:51:30;;;;;;;16.25;10.60;;;;;;;-0.48;100.00;100866.43;1779677;79;21081;-61
2020/12/31 08:54:00;;;;;;;15.38;9.40;;;;;;;-0.45;100.00;100874.39;1786623;79;21164;-60
2020/12/31 08:56:30;;;;;;;12.73;9.35;;;;;;;-0.45;100.00;100873.92;1778331;79;20981;-59
2020/12/31 08:59:12;;;;;;;14.47;9.58;;;;;;;-0.45;100.00;100868.80;1781369;80;21220;-55
2020/12/31 09:01:44;;;;;;;;;;;;;;;-0.44;100.00;100865.31;1776376;80;21382;-60
2020/12/31 09:04:19;;;;;;;15.32;9.53;;;;;;;-0.42;100.00;100867.30;1775610;80;21069;-61
2020/12/31 09:06:57;;;;;;;15.05;9.05;;;;;;;-0.39;100.00;100865.83;1779512;79;21466;-56
2020/12/31 09:09:28;;;;;;;14.83;9.28;;;;;;;-0.37;100.00;100854.23;1804249;78;21041;-61
2020/12/31 09:12:03;;;;;;;17.62;11.70;;;;;;;-0.39;100.00;100849.19;1772700;79;21189;-61
2020/12/31 09:14:34;;;;;;;14.90;9.38;;;;;;;-0.42;100.00;100842.97;1805793;78;21666;-59
2020/12/31 09:17:24;;;;;;;14.45;9.70;;;;;;;-0.43;100.00;100849.02;1777115;79;21399;-60
2020/12/31 09:19:55;;;;;;;;;;;;;;;-0.43;100.00;100843.91;1785049;78;20923;-60
2020/12/31 09:22:25;;;;;;;17.12;10.53;;;;;;;-0.44;100.00;100844.83;1804763;78;20513;-59
2020/12/31 09:24:54;;;;;;;16.50;10.28;;;;;;;-0.46;100.00;100839.43;1805139;78;21089;-60
2020/12/31 09:27:26;;;;;;;13.18;9.48;;;;;;;-0.53;100.00;100841.55;1785372;78;21166;-60
2020/12/31 09:29:59;;;;;;;19.87;12.43;;;;;;;-0.54;100.00;100841.20;1788183;79;20991;-61
2020/12/31 09:32:30;;;;;;;16.35;9.75;;;;;;;-0.51;100.00;100835.89;1792346;79;21145;-61
2020/12/31 09:35:13;;;;;;;20.57;12.82;;;;;;;-0.45;100.00;100830.85;1713207;82;20978;-60
2020/12/31 09:37:55;;;;;;;104.95;66.25;;;;;;;-0.47;100.00;100833.95;1710917;82;21188;-60
2020/12/31 09:46:35;;;;;;;76.97;33.67;;;;;;;-0.47;100.00;100814.28;1792759;79;22748;-66
2020/12/31 09:49:04;;;;;;;94.40;45.40;;;;;;;-0.55;100.00;100804.53;1779557;80;20993;-64
2020/12/31 09:51:32;;;;;;;302.90;145.53;;;;;;;-0.55;100.00;100812.22;1764622;80;21246;-60
2020/12/31 09:54:00;;;;;;;48.60;29.30;;;;;;;-0.52;100.00;100807.37;1752812;80;21021;-60
2020/12/31 09:56:31;;;;;;;36.93;27.55;;;;;;;-0.44;100.00;100797.45;1756116;80;21030;-62
2020/12/31 09:58:59;;;;;;;16.93;12.88;;;;;;;-0.37;100.00;100805.09;1719685;81;20978;-60
2020/12/31 10:01:28;;;;;;;21.33;14.70;;;;;;;-0.34;100.00;100797.22;1706786;83;21643;-62
2020/12/31 10:03:56;;;;;;;24.57;16.80;;;;;;;-0.35;100.00;100787.88;1720808;82;21460;-59
2020/12/31 10:06:24;;;;;;;24.72;14.38;;;;;;;-0.34;100.00;100784.41;1707177;83;21042;-62
2020/12/31 10:08:52;;;;;;;26.40;16.10;;;;;;;-0.34;100.00;100784.41;1717356;82;21030;-61
2020/12/31 10:11:20;;;;;;;28.92;17.50;;;;;;;-0.32;100.00;100776.16;1720614;81;21363;-60
2020/12/31 10:13:49;;;;;;;21.40;14.65;;;;;;;-0.30;100.00;100767.92;1703776;83;20959;-57
2020/12/31 10:16:17;;;;;;;18.62;11.63;;;;;;;-0.32;100.00;100767.19;1713334;82;21215;-58
2020/12/31 10:18:45;;;;;;;20.72;13.20;;;;;;;-0.33;100.00;100767.30;1700227;82;21185;-58
2020/12/31 10:21:14;;;;;;;16.85;11.83;;;;;;;-0.37;100.00;100764.12;1707473;82;21600;-58
2020/12/31 10:23:42;;;;;;;16.35;10.98;;;;;;;-0.37;100.00;100767.96;1708686;83;21220;-58
2020/12/31 10:26:10;;;;;;;15.68;10.32;;;;;;;-0.34;100.00;100768.20;1714487;82;21240;-60
2020/12/31 10:28:39;;;;;;;19.10;12.78;;;;;;;-0.31;100.00;100775.69;1718048;83;21700;-67
2020/12/31 10:31:07;;;;;;;16.77;11.18;;;;;;;-0.31;100.00;100775.69;1723011;81;21034;-64
2020/12/31 10:33:35;;;;;;;15.83;10.55;;;;;;;-0.30;100.00;100771.77;1721203;81;20997;-65
2020/12/31 10:36:04;;;;;;;17.77;11.83;;;;;;;-0.32;100.00;100775.34;1708536;83;21062;-66
2020/12/31 10:38:33;;;;;;;16.35;10.78;;;;;;;-0.39;100.00;100771.06;1722755;81;21180;-59
2020/12/31 10:41:01;;;;;;;16.25;10.95;;;;;;;-0.50;100.00;100774.31;1704329;83;21289;-59
2020/12/31 10:43:29;;;;;;;38.75;22.50;;;;;;;-0.55;100.00;100771.70;1720896;81;21010;-57
2020/12/31 10:45:57;;;;;;;18.45;11.50;;;;;;;-0.61;100.00;100775.47;1699992;82;21156;-58
2020/12/31 10:48:25;;;;;;;15.43;10.95;;;;;;;-0.64;100.00;100771.84;1687562;84;20944;-60
2020/12/31 10:50:59;;;;;;;20.92;14.00;;;;;;;-0.66;100.00;100769.02;1699113;83;21185;-58
2020/12/31 10:53:27;;;;;;;18.92;12.78;;;;;;;-0.65;100.00;100766.80;1726861;82;21376;-59
2020/12/31 10:55:55;;;;;;;20.88;13.48;;;;;;;-0.63;100.00;100763.70;1735032;82;21083;-68
2020/12/31 10:58:24;;;;;;;20.05;13.38;;;;;;;-0.67;100.00;100762.27;1739645;80;20979;-67
2020/12/31 11:00:53;;;;;;;22.80;14.90;;;;;;;-0.74;100.00;100762.64;1746631;80;21556;-68
2020/12/31 11:03:21;;;;;;;19.30;13.25;;;;;;;-0.80;100.00;100761.73;1744863;80;21066;-60
2020/12/31 11:05:50;;;;;;;21.82;13.65;;;;;;;-0.80;100.00;100759.64;1736756;80;21261;-59
2020/12/31 11:08:18;;;;;;;17.67;12.40;;;;;;;-0.79;100.00;100758.28;1739412;82;21258;-61
2020/12/31 11:10:49;;;;;;;18.07;12.65;;;;;;;-0.76;100.00;100763.22;1751199;80;20943;-61
2020/12/31 11:13:17;;;;;;;18.17;11.68;;;;;;;-0.75;100.00;100762.75;1755631;80;21107;-59
2020/12/31 11:15:45;;;;;;;18.70;12.10;;;;;;;-0.77;100.00;100762.02;1747166;80;21053;-60
2020/12/31 11:18:13;;;;;;;17.73;13.40;;;;;;;-0.78;100.00;100762.94;1750298;80;22461;-60
2020/12/31 11:20:42;;;;;;;16.77;12.30;;;;;;;-0.76;100.00;100756.81;1743195;80;21221;-61
2020/12/31 11:23:10;;;;;;;26.40;17.10;;;;;;;-0.70;100.00;100758.61;1741311;82;20983;-59
2020/12/31 11:25:39;;;;;;;28.00;17.62;;;;;;;-0.66;100.00;100763.43;1737745;81;21179;-61
2020/12/31 11:28:07;;;;;;;27.35;16.62;;;;;;;-0.61;100.00;100754.98;1742235;80;20935;-61
2020/12/31 11:30:35;;;;;;;33.45;18.25;;;;;;;-0.57;100.00;100755.61;1739437;82;21212;-63